createdAt,value
2018-02-20T00:01:02.328Z,27.70
2018-02-20T00:03:31.126Z,26.17
2018-02-20T00:05:59.917Z,27.57
2018-02-20T00:08:29.088Z,28.83
2018-02-20T00:10:57.899Z,25.73
2018-02-20T00:13:26.756Z,27.77
2018-02-20T00:15:55.663Z,25.93
2018-02-20T00:18:24.452Z,25.70
2018-02-20T00:20:53.326Z,24.30
2018-02-20T00:23:22.208Z,26.23
2018-02-20T00:25:51.036Z,26.97
2018-02-20T00:28:19.838Z,27.63
2018-02-20T00:30:48.728Z,26.40
2018-02-20T00:33:17.809Z,28.25
2018-02-20T00:35:46.916Z,25.23
2018-02-20T00:38:15.756Z,24.60
2018-02-20T00:40:44.589Z,25.40
2018-02-20T00:43:13.379Z,23.43
2018-02-20T00:45:42.245Z,25.73
2018-02-20T00:48:11.411Z,24.80
2018-02-20T00:50:40.242Z,24.13
2018-02-20T00:53:09.474Z,25.20
2018-02-20T00:55:38.288Z,24.80
2018-02-20T00:58:07.215Z,26.97
2018-02-20T01:00:36.364Z,26.73
2018-02-20T01:03:05.875Z,26.23
2018-02-20T01:05:35.032Z,25.23
2018-02-20T01:08:03.885Z,25.10
2018-02-20T01:10:32.705Z,24.63
2018-02-20T01:13:01.503Z,23.23
2018-02-20T01:15:30.629Z,23.00
2018-02-20T01:17:59.449Z,22.20
2018-02-20T01:20:28.541Z,22.05
2018-02-20T01:22:57.377Z,22.37
2018-02-20T01:25:26.700Z,22.73
2018-02-20T01:27:55.868Z,23.27
2018-02-20T01:30:25.010Z,24.67
2018-02-20T01:32:54.165Z,24.98
2018-02-20T01:35:23.505Z,23.02
2018-02-20T01:37:52.635Z,24.80
2018-02-20T01:40:21.814Z,24.90
2018-02-20T01:42:51.023Z,26.43
2018-02-20T01:45:20.176Z,27.20
2018-02-20T01:47:50.607Z,38.20
2018-02-20T01:50:20.981Z,39.63
2018-02-20T01:52:51.501Z,35.75
2018-02-20T01:55:30.027Z,33.08
2018-02-20T01:57:59.143Z,30.73
2018-02-20T02:00:28.424Z,25.60
2018-02-20T02:02:57.574Z,25.22
2018-02-20T02:05:27.207Z,23.58
2018-02-20T02:07:57.928Z,22.30
2018-02-20T02:10:27.720Z,22.65
2018-02-20T02:12:58.345Z,22.05
2018-02-20T02:15:29.147Z,24.58
2018-02-20T02:18:01.600Z,24.25
2018-02-20T02:20:32.104Z,24.35
2018-02-20T02:23:02.749Z,24.20
2018-02-20T02:25:33.345Z,27.08
2018-02-20T02:28:05.199Z,24.24
2018-02-20T02:30:35.564Z,26.08
2018-02-20T02:33:06.193Z,25.05
2018-02-20T02:35:37.472Z,24.58
2018-02-20T02:38:08.234Z,25.70
2018-02-20T02:40:38.726Z,25.42
2018-02-20T02:43:09.404Z,25.27
2018-02-20T02:45:40.642Z,24.52
2018-02-20T02:48:12.110Z,26.70
2018-02-20T02:50:42.655Z,27.25
2018-02-20T02:53:13.980Z,27.46
2018-02-20T02:55:45.317Z,26.90
2018-02-20T02:58:16.015Z,27.80
2018-02-20T03:00:46.562Z,27.28
2018-02-20T03:03:17.923Z,28.64
2018-02-20T03:05:48.247Z,28.70
2018-02-20T03:08:19.008Z,30.02
2018-02-20T03:10:49.507Z,28.06
2018-02-20T03:13:22.061Z,28.63
2018-02-20T03:15:52.427Z,31.62
2018-02-20T03:18:23.318Z,30.60
2018-02-20T03:20:53.668Z,30.12
2018-02-20T03:23:24.272Z,30.66
2018-02-20T03:25:55.736Z,30.18
2018-02-20T03:28:26.049Z,30.55
2018-02-20T03:30:57.900Z,30.88
2018-02-20T03:33:28.447Z,31.17
2018-02-20T03:35:59.313Z,32.13
2018-02-20T03:38:29.895Z,29.12
2018-02-20T03:41:00.463Z,30.98
2018-02-20T03:43:31.067Z,31.37
2018-02-20T03:46:01.298Z,29.67
2018-02-20T03:48:32.258Z,30.27
2018-02-20T03:51:03.478Z,31.14
2018-02-20T03:53:34.959Z,32.97
2018-02-20T03:56:05.443Z,32.16
2018-02-20T03:58:36.242Z,32.75
2018-02-20T04:01:06.389Z,29.98
2018-02-20T04:03:37.861Z,30.40
2018-02-20T04:06:08.573Z,30.60
2018-02-20T04:08:39.219Z,32.35
2018-02-20T04:11:11.148Z,31.56
2018-02-20T04:13:40.967Z,32.33
2018-02-20T04:16:12.088Z,32.75
2018-02-20T04:18:43.257Z,32.36
2018-02-20T04:21:14.867Z,32.30
2018-02-20T04:23:45.400Z,32.86
2018-02-20T04:26:15.983Z,32.10
2018-02-20T04:28:47.041Z,31.98
2018-02-20T04:31:18.598Z,31.94
2018-02-20T04:33:49.148Z,32.47
2018-02-20T04:36:19.612Z,32.75
2018-02-20T04:38:50.784Z,32.17
2018-02-20T04:41:21.188Z,31.42
2018-02-20T04:43:52.084Z,32.40
2018-02-20T04:46:23.987Z,30.98
2018-02-20T04:48:54.401Z,33.22
2018-02-20T04:51:25.888Z,44.52
2018-02-20T04:53:57.139Z,40.25
2018-02-20T04:56:26.781Z,35.80
2018-02-20T04:58:57.643Z,32.38
2018-02-20T05:01:28.850Z,30.26
2018-02-20T05:04:00.415Z,29.70
2018-02-20T05:09:08.941Z,27.27
2018-02-20T05:11:38.039Z,29.00
2018-02-20T05:14:07.127Z,27.58
2018-02-20T05:16:39.467Z,27.30
2018-02-20T05:19:08.558Z,28.00
2018-02-20T05:21:37.652Z,26.62
2018-02-20T05:24:08.120Z,26.60
2018-02-20T05:26:38.326Z,26.13
2018-02-20T05:29:09.327Z,26.80
2018-02-20T05:31:39.796Z,25.77
2018-02-20T05:34:11.460Z,26.28
2018-02-20T05:36:42.871Z,28.22
2018-02-20T05:39:13.727Z,26.65
2018-02-20T05:41:43.248Z,28.90
2018-02-20T05:44:14.700Z,28.10
2018-02-20T05:46:45.257Z,27.65
2018-02-20T05:49:16.041Z,28.73
2018-02-20T05:51:46.909Z,31.50
2018-02-20T05:54:17.121Z,32.50
2018-02-20T05:56:47.512Z,35.90
2018-02-20T05:59:18.461Z,34.72
2018-02-20T06:01:51.879Z,33.54
2018-02-20T06:04:21.454Z,33.85
2018-02-20T06:06:51.587Z,31.86
2018-02-20T06:09:22.583Z,28.70
2018-02-20T06:11:52.995Z,29.80
2018-02-20T06:14:23.968Z,29.40
2018-02-20T06:16:54.862Z,30.30
2018-02-20T06:19:26.432Z,32.90
2018-02-20T06:21:57.962Z,32.08
2018-02-20T06:24:29.506Z,37.12
2018-02-20T06:26:59.328Z,39.25
2018-02-20T06:29:30.017Z,38.95
2018-02-20T06:32:00.535Z,40.20
2018-02-20T06:34:31.075Z,35.17
2018-02-20T06:37:01.946Z,34.90
2018-02-20T06:39:32.651Z,34.10
2018-02-20T06:42:04.079Z,34.40
2018-02-20T06:44:35.067Z,33.22
2018-02-20T06:47:05.692Z,29.98
2018-02-20T06:49:36.579Z,31.80
2018-02-20T06:52:07.100Z,31.37
2018-02-20T06:54:37.926Z,33.35
2018-02-20T06:57:08.763Z,31.85
2018-02-20T06:59:39.711Z,30.42
2018-02-20T07:02:10.611Z,28.27
2018-02-20T07:04:42.039Z,29.08
2018-02-20T07:07:12.938Z,28.15
2018-02-20T07:09:44.000Z,29.67
2018-02-20T07:12:14.836Z,30.10
2018-02-20T07:14:45.621Z,34.78
2018-02-20T07:17:15.968Z,41.33
2018-02-20T07:19:46.927Z,53.33
2018-02-20T07:22:17.775Z,58.87
2018-02-20T07:24:48.692Z,61.28
2018-02-20T07:27:19.285Z,56.35
2018-02-20T07:29:50.904Z,79.08
2018-02-20T07:32:21.755Z,50.72
2018-02-20T07:34:52.086Z,43.17
2018-02-20T07:37:22.515Z,51.42
2018-02-20T07:39:53.283Z,37.97
2018-02-20T07:42:24.195Z,45.40
2018-02-20T07:44:55.185Z,31.00
2018-02-20T07:47:26.423Z,51.64
2018-02-20T07:49:57.473Z,54.33
2018-02-20T07:52:27.144Z,56.17
2018-02-20T07:54:58.808Z,33.66
2018-02-20T07:57:29.332Z,30.67
2018-02-20T08:00:00.197Z,30.00
2018-02-20T08:02:31.475Z,29.10
2018-02-20T08:05:02.312Z,30.58
2018-02-20T08:07:33.203Z,30.90
2018-02-20T08:10:04.238Z,35.12
2018-02-20T08:12:34.817Z,33.97
2018-02-20T08:15:06.480Z,33.94
2018-02-20T08:17:37.904Z,28.76
2018-02-20T08:20:08.799Z,27.33
2018-02-20T08:22:39.647Z,28.52
2018-02-20T08:25:10.629Z,32.17
2018-02-20T08:27:42.465Z,34.28
2018-02-20T08:30:12.911Z,33.23
2018-02-20T08:32:43.739Z,30.00
2018-02-20T08:35:14.689Z,28.77
2018-02-20T08:37:45.560Z,29.42
2018-02-20T08:40:16.943Z,26.58
2018-02-20T08:42:47.789Z,29.58
2018-02-20T08:45:18.693Z,31.17
2018-02-20T08:47:49.556Z,27.83
2018-02-20T08:50:20.903Z,26.24
2018-02-20T08:52:51.771Z,27.75
2018-02-20T08:55:22.649Z,31.00
2018-02-20T08:57:53.896Z,31.12
2018-02-20T09:00:24.804Z,30.58
2018-02-20T09:02:55.614Z,29.67
2018-02-20T09:05:26.983Z,28.94
2018-02-20T09:07:57.721Z,28.33
2018-02-20T09:10:28.687Z,29.30
2018-02-20T09:12:59.182Z,28.33
2018-02-20T09:15:29.912Z,27.05
2018-02-20T09:18:00.733Z,29.02
2018-02-20T09:20:31.685Z,29.17
2018-02-20T09:23:03.034Z,29.92
2018-02-20T09:25:33.989Z,29.42
2018-02-20T09:28:04.807Z,27.05
2018-02-20T09:30:35.681Z,28.40
2018-02-20T09:33:07.096Z,30.36
2018-02-20T09:35:37.860Z,28.77
2018-02-20T09:38:08.171Z,29.33
2018-02-20T09:40:38.618Z,30.58
2018-02-20T09:43:09.184Z,29.05
2018-02-20T09:45:40.658Z,28.36
2018-02-20T09:48:11.953Z,29.60
2018-02-20T09:50:43.484Z,31.98
2018-02-20T09:53:14.257Z,35.26
2018-02-20T09:55:45.191Z,29.20
2018-02-20T09:58:14.756Z,29.65
2018-02-20T10:00:45.279Z,27.25
2018-02-20T10:03:16.846Z,29.72
2018-02-20T10:05:47.733Z,32.53
2018-02-20T10:08:21.911Z,31.37
2018-02-20T10:10:51.509Z,31.48
2018-02-20T10:13:21.155Z,28.50
2018-02-20T10:15:52.866Z,28.80
2018-02-20T10:18:23.368Z,26.78
2018-02-20T10:20:54.042Z,28.02
2018-02-20T10:23:24.834Z,27.77
2018-02-20T10:25:56.258Z,28.96
2018-02-20T10:28:27.003Z,27.98
2018-02-20T10:30:57.915Z,27.70
2018-02-20T10:33:29.157Z,25.23
2018-02-20T10:35:59.856Z,25.12
2018-02-20T10:38:30.700Z,24.70
2018-02-20T10:41:01.080Z,25.55
2018-02-20T10:43:31.536Z,25.85
2018-02-20T10:46:02.243Z,27.27
2018-02-20T10:48:33.117Z,25.60
2018-02-20T10:51:03.868Z,25.20
2018-02-20T10:53:34.378Z,26.30
2018-02-20T10:56:04.152Z,25.92
2018-02-20T10:58:34.780Z,26.05
2018-02-20T11:01:06.057Z,27.23
2018-02-20T11:03:39.160Z,27.98
2018-02-20T11:06:09.694Z,25.23
2018-02-20T11:08:40.506Z,25.50
2018-02-20T11:11:11.152Z,25.48
2018-02-20T11:13:42.380Z,26.88
2018-02-20T11:16:13.230Z,29.45
2018-02-20T11:18:44.111Z,27.75
2018-02-20T11:21:14.582Z,28.42
2018-02-20T11:23:45.189Z,30.10
2018-02-20T11:26:16.469Z,29.38
2018-02-20T11:28:47.107Z,28.80
2018-02-20T11:31:18.463Z,27.74
2018-02-20T11:33:49.831Z,29.34
2018-02-20T11:36:20.717Z,28.67
2018-02-20T11:38:51.608Z,28.17
2018-02-20T11:41:26.277Z,30.38
2018-02-20T11:43:55.369Z,27.08
2018-02-20T11:46:25.221Z,29.37
2018-02-20T11:48:55.953Z,29.67
2018-02-20T11:51:27.346Z,28.87
2018-02-20T11:53:57.996Z,27.83
2018-02-20T11:56:28.841Z,29.17
2018-02-20T11:58:59.720Z,28.30
2018-02-20T12:01:30.761Z,27.52
2018-02-20T12:04:01.320Z,28.36
2018-02-20T12:06:31.509Z,26.42
2018-02-20T12:09:02.061Z,29.00
2018-02-20T12:11:32.848Z,27.75
2018-02-20T12:14:03.806Z,26.85
2018-02-20T12:16:34.806Z,26.40
2018-02-20T12:19:05.620Z,29.52
2018-02-20T12:21:36.171Z,27.17
2018-02-20T12:24:06.824Z,29.46
2018-02-20T12:26:37.303Z,28.06
2018-02-20T12:29:07.946Z,27.27
2018-02-20T12:31:38.737Z,28.50
2018-02-20T12:34:09.616Z,26.62
2018-02-20T12:36:40.568Z,29.30
2018-02-20T12:39:11.928Z,29.84
2018-02-20T12:41:42.777Z,29.42
2018-02-20T12:44:13.728Z,28.40
2018-02-20T12:46:44.520Z,27.37
2018-02-20T12:49:15.887Z,28.12
2018-02-20T12:51:46.704Z,28.50
2018-02-20T12:54:17.636Z,27.70
2018-02-20T12:56:48.960Z,29.12
2018-02-20T12:59:19.833Z,30.85
2018-02-20T13:01:50.958Z,32.10
2018-02-20T13:04:21.847Z,29.48
2018-02-20T13:06:52.748Z,28.58
2018-02-20T13:09:23.288Z,30.76
2018-02-20T13:11:53.887Z,32.55
2018-02-20T13:14:24.758Z,33.60
2018-02-20T13:16:55.593Z,31.35
2018-02-20T13:19:26.925Z,31.20
2018-02-20T13:21:57.388Z,30.20
2018-02-20T13:24:27.800Z,29.85
2018-02-20T13:26:58.342Z,25.90
2018-02-20T13:29:29.002Z,25.48
2018-02-20T13:31:59.832Z,28.17
2018-02-20T13:34:30.759Z,26.10
2018-02-20T13:37:01.616Z,25.55
2018-02-20T13:39:32.598Z,29.10
2018-02-20T13:42:03.879Z,27.12
2018-02-20T13:44:39.966Z,26.87
2018-02-20T13:47:09.061Z,25.27
2018-02-20T13:49:38.186Z,26.70
2018-02-20T13:52:08.755Z,25.10
2018-02-20T13:54:39.199Z,27.74
2018-02-20T13:57:09.898Z,27.35
2018-02-20T13:59:41.090Z,30.52
2018-02-20T14:02:11.911Z,30.27
2018-02-20T14:04:43.143Z,34.47
2018-02-20T14:07:13.664Z,30.04
2018-02-20T14:09:44.123Z,26.26
2018-02-20T14:12:14.992Z,29.35
2018-02-20T14:14:45.807Z,31.83
2018-02-20T14:17:16.692Z,32.33
2018-02-20T14:19:47.723Z,32.58
2018-02-20T14:22:19.264Z,30.48
2018-02-20T14:24:50.233Z,29.35
2018-02-20T14:27:20.868Z,40.58
2018-02-20T14:29:51.797Z,25.48
2018-02-20T14:32:22.703Z,27.75
2018-02-20T14:34:53.652Z,31.55
2018-02-20T14:37:24.517Z,27.15
2018-02-20T14:40:08.763Z,28.02
2018-02-20T14:42:38.266Z,26.25
2018-02-20T14:45:07.376Z,25.30
2018-02-20T14:47:36.522Z,26.05
2018-02-20T14:50:05.631Z,27.33
2018-02-20T14:52:34.742Z,22.44
2018-02-20T14:55:03.983Z,25.80
2018-02-20T14:57:33.096Z,26.95
2018-02-20T15:00:03.677Z,30.08
2018-02-20T15:02:34.209Z,30.50
2018-02-20T15:05:04.952Z,26.08
2018-02-20T15:07:35.818Z,30.35
2018-02-20T15:10:06.698Z,32.38
2018-02-20T15:12:37.576Z,27.13
2018-02-20T15:15:08.540Z,26.27
2018-02-20T15:17:38.899Z,26.90
2018-02-20T15:20:09.813Z,22.92
2018-02-20T15:22:40.665Z,25.27
2018-02-20T15:25:12.048Z,23.52
2018-02-20T15:27:42.939Z,24.33
2018-02-20T15:30:13.812Z,25.40
2018-02-20T15:32:44.676Z,28.92
2018-02-20T15:35:15.868Z,28.95
2018-02-20T15:37:46.797Z,28.73
2018-02-20T15:40:17.665Z,28.15
2018-02-20T15:42:48.677Z,28.92
2018-02-20T15:45:19.689Z,29.60
2018-02-20T15:47:50.501Z,28.90
2018-02-20T15:50:21.876Z,26.38
2018-02-20T15:52:52.654Z,26.75
2018-02-20T15:55:23.092Z,27.17
2018-02-20T15:57:53.826Z,28.75
2018-02-20T16:00:24.728Z,26.10
2018-02-20T16:02:55.557Z,26.55
2018-02-20T16:05:27.025Z,26.40
2018-02-20T16:07:57.699Z,27.48
2018-02-20T16:10:28.652Z,28.00
2018-02-20T16:12:59.501Z,28.38
2018-02-20T16:15:29.633Z,30.12
2018-02-20T16:18:00.912Z,28.04
2018-02-20T16:20:31.799Z,30.90
2018-02-20T16:23:03.335Z,35.28
2018-02-20T16:25:33.826Z,43.15
2018-02-20T16:28:04.309Z,39.02
2018-02-20T16:30:34.966Z,35.90
2018-02-20T16:33:05.832Z,33.42
2018-02-20T16:35:36.906Z,40.00
2018-02-20T16:38:07.413Z,44.98
2018-02-20T16:40:37.960Z,36.92
2018-02-20T16:43:08.871Z,36.25
2018-02-20T16:45:39.845Z,40.03
2018-02-20T16:48:10.709Z,39.33
2018-02-20T16:50:41.699Z,38.75
2018-02-20T16:53:12.574Z,39.22
2018-02-20T16:55:43.969Z,38.96
2018-02-20T16:58:14.799Z,37.92
2018-02-20T17:00:45.442Z,41.53
2018-02-20T17:03:17.197Z,53.24
2018-02-20T17:05:47.967Z,129.98
2018-02-20T17:08:18.545Z,205.54
2018-02-20T17:10:49.004Z,231.25
2018-02-20T17:13:19.896Z,81.82
2018-02-20T17:15:50.792Z,83.87
2018-02-20T17:18:21.713Z,100.10
2018-02-20T17:20:52.721Z,101.45
2018-02-20T17:23:23.582Z,94.28
2018-02-20T17:25:55.040Z,93.20
2018-02-20T17:28:25.894Z,81.60
2018-02-20T17:30:56.830Z,107.47
2018-02-20T17:33:27.993Z,108.03
2018-02-20T17:35:58.940Z,105.35
2018-02-20T17:38:29.452Z,101.14
2018-02-20T17:41:00.178Z,94.03
2018-02-20T17:43:31.128Z,91.03
2018-02-20T17:46:02.004Z,96.35
2018-02-20T17:48:33.110Z,93.57
2018-02-20T17:51:06.842Z,102.53
2018-02-20T17:53:36.157Z,103.57
2018-02-20T17:56:06.516Z,99.50
2018-02-20T17:58:37.116Z,98.75
2018-02-20T18:01:07.588Z,91.06
2018-02-20T18:03:38.052Z,85.72
2018-02-20T18:06:08.901Z,84.55
2018-02-20T18:08:39.748Z,85.53
2018-02-20T18:11:12.109Z,78.94
2018-02-20T18:13:41.915Z,71.86
2018-02-20T18:16:12.487Z,64.34
2018-02-20T18:18:42.956Z,58.42
2018-02-20T18:21:14.248Z,64.37
2018-02-20T18:23:45.193Z,65.03
2018-02-20T18:26:16.804Z,81.58
2018-02-20T18:28:47.500Z,87.54
2018-02-20T18:31:18.436Z,110.03
2018-02-20T18:33:48.943Z,97.82
2018-02-20T18:36:19.936Z,64.97
2018-02-20T18:38:49.709Z,50.95
2018-02-20T18:41:20.795Z,47.22
2018-02-20T18:43:51.745Z,46.78
2018-02-20T18:46:22.723Z,45.90
2018-02-20T18:48:53.218Z,46.58
2018-02-20T18:51:24.509Z,47.62
2018-02-20T18:53:54.951Z,45.50
2018-02-20T18:56:25.589Z,44.16
2018-02-20T18:58:55.986Z,42.67
2018-02-20T19:01:26.613Z,44.16
2018-02-20T19:03:59.527Z,43.84
2018-02-20T19:06:29.444Z,45.72
2018-02-20T19:08:59.337Z,50.08
2018-02-20T19:11:29.913Z,73.20
2018-02-20T19:14:00.828Z,182.57
2018-02-20T19:16:32.588Z,195.88
2018-02-20T19:19:02.260Z,124.47
2018-02-20T19:21:33.497Z,78.65
2018-02-20T19:24:03.698Z,69.60
2018-02-20T19:26:34.278Z,59.00
2018-02-20T19:29:04.448Z,58.32
2018-02-20T19:31:34.352Z,66.65
2018-02-20T19:34:05.786Z,67.43
2018-02-20T19:36:36.464Z,89.40
2018-02-20T19:39:06.962Z,126.47
2018-02-20T19:41:37.572Z,137.68
2018-02-20T19:44:08.029Z,128.12
2018-02-20T19:46:39.031Z,120.22
2018-02-20T19:49:09.903Z,110.25
2018-02-20T19:51:40.913Z,119.93
2018-02-20T19:54:11.468Z,183.80
2018-02-20T19:56:42.049Z,114.43
2018-02-20T19:59:12.427Z,77.00
2018-02-20T20:01:43.059Z,58.97
2018-02-20T20:04:13.905Z,49.80
2018-02-20T20:06:44.800Z,46.20
2018-02-20T20:09:15.199Z,72.57
2018-02-20T20:11:46.003Z,88.57
2018-02-20T20:14:16.864Z,101.38
2018-02-20T20:16:47.878Z,95.00
2018-02-20T20:19:19.225Z,89.94
2018-02-20T20:21:49.964Z,93.20
2018-02-20T20:24:20.882Z,91.32
2018-02-20T20:26:51.500Z,83.42
2018-02-20T20:29:23.120Z,75.72
2018-02-20T20:31:53.699Z,74.16
2018-02-20T20:34:24.275Z,68.34
2018-02-20T20:36:54.924Z,70.57
2018-02-20T20:39:25.792Z,75.72
2018-02-20T20:41:56.759Z,76.00
2018-02-20T20:44:28.123Z,76.14
2018-02-20T20:46:59.284Z,68.90
2018-02-20T20:49:29.978Z,66.32
2018-02-20T20:52:00.944Z,63.10
2018-02-20T20:54:32.179Z,60.53
2018-02-20T20:57:04.989Z,55.83
2018-02-20T20:59:34.169Z,51.10
2018-02-20T21:02:04.099Z,47.20
2018-02-20T21:04:35.031Z,46.83
2018-02-20T21:07:05.860Z,45.70
2018-02-20T21:09:36.763Z,48.38
2018-02-20T21:12:07.657Z,50.75
2018-02-20T21:14:39.027Z,49.98
2018-02-20T21:17:08.973Z,54.05
2018-02-20T21:19:39.571Z,65.82
2018-02-20T21:22:10.191Z,66.15
2018-02-20T21:24:41.484Z,59.26
2018-02-20T21:27:12.857Z,56.72
2018-02-20T21:29:43.784Z,54.00
2018-02-20T21:32:14.612Z,57.58
2018-02-20T21:34:45.951Z,53.40
2018-02-20T21:37:16.785Z,57.35
2018-02-20T21:39:47.680Z,71.62
2018-02-20T21:42:18.547Z,80.82
2018-02-20T21:44:49.888Z,75.58
2018-02-20T21:47:20.716Z,54.13
2018-02-20T21:49:51.651Z,45.20
2018-02-20T21:52:22.571Z,46.92
2018-02-20T21:54:53.974Z,50.30
2018-02-20T21:57:24.804Z,49.47
2018-02-20T21:59:55.705Z,53.63
2018-02-20T22:02:26.572Z,58.53
2018-02-20T22:04:58.044Z,55.66
2018-02-20T22:07:28.808Z,56.08
2018-02-20T22:09:59.245Z,53.22
2018-02-20T22:12:29.823Z,55.40
2018-02-20T22:15:00.782Z,58.67
2018-02-20T22:17:31.288Z,55.06
2018-02-20T22:20:02.032Z,75.22
2018-02-20T22:22:32.908Z,99.62
2018-02-20T22:25:03.491Z,84.20
2018-02-20T22:27:33.999Z,75.40
2018-02-20T22:30:04.945Z,52.75
2018-02-20T22:32:35.880Z,46.88
2018-02-20T22:35:06.799Z,45.35
2018-02-20T22:37:37.300Z,46.46
2018-02-20T22:40:07.936Z,72.50
2018-02-20T22:42:38.792Z,100.53
2018-02-20T22:45:09.767Z,71.62
2018-02-20T22:47:41.224Z,67.22
2018-02-20T22:50:11.583Z,49.76
2018-02-20T22:52:42.108Z,49.90
2018-02-20T22:55:12.889Z,68.80
2018-02-20T22:57:43.352Z,58.50
2018-02-20T23:00:14.014Z,43.58
2018-02-20T23:02:44.900Z,36.88
2018-02-20T23:05:15.869Z,36.53
2018-02-20T23:07:46.691Z,36.38
2018-02-20T23:10:17.645Z,40.60
2018-02-20T23:12:48.513Z,40.60
2018-02-20T23:15:19.956Z,39.88
2018-02-20T23:17:50.792Z,39.70
2018-02-20T23:20:21.675Z,40.05
2018-02-20T23:22:52.940Z,39.20
2018-02-20T23:25:25.046Z,38.53
2018-02-20T23:27:55.763Z,36.46
2018-02-20T23:30:26.283Z,35.14
2018-02-20T23:32:56.854Z,36.72
2018-02-20T23:35:27.447Z,41.00
2018-02-20T23:37:57.891Z,40.05
2018-02-20T23:40:28.837Z,38.47
2018-02-20T23:42:59.678Z,39.22
2018-02-20T23:45:30.945Z,38.02
2018-02-20T23:48:01.784Z,39.15
2018-02-20T23:50:32.668Z,39.63
2018-02-20T23:53:03.911Z,39.68
2018-02-20T23:55:34.803Z,39.75
2018-02-20T23:58:05.650Z,42.85
